Time;durP1;ratioP1;P1;durP2;ratioP2;P2;SDS_P1;SDS_P2;PMS_P1;PMS_P2;Temp;Humidity;BMP_temperature;BMP_pressure;BME280_temperature;BME280_humidity;BME280_pressure;Samples;Min_cycle;Max_cycle;Signal;HPM_P1;HPM_P2
2023/08/07 00:01:04;;;;;;;2.33;1.20;;;;;;;-145.14;100.00;70583.66;5007443;28;20239;-67
2023/08/07 00:03:29;;;;;;;2.50;1.23;;;;;;;-145.14;100.00;70583.66;5012443;28;20200;-67
2023/08/07 00:05:55;;;;;;;3.40;1.50;;;;;;;-145.14;100.00;70583.66;5009726;28;20212;-67
2023/08/07 00:08:21;;;;;;;2.67;1.10;;;;;;;-145.14;100.00;70583.66;5009258;28;20250;-68
2023/08/07 00:10:48;;;;;;;2.17;1.33;;;;;;;-145.14;100.00;70583.66;5009202;28;20208;-67
2023/08/07 00:13:13;;;;;;;2.77;1.13;;;;;;;-145.14;100.00;70583.66;5016141;28;20239;-67
2023/08/07 00:15:39;;;;;;;2.83;1.30;;;;;;;-145.14;100.00;70583.66;5011521;28;20914;-67
2023/08/07 00:18:04;;;;;;;2.17;1.43;;;;;;;-145.14;100.00;70583.66;5005805;28;20215;-67
2023/08/07 00:20:30;;;;;;;2.30;1.40;;;;;;;-145.14;100.00;70583.66;5008461;28;20217;-67
2023/08/07 00:22:55;;;;;;;3.73;1.10;;;;;;;-145.14;100.00;70583.66;5003482;28;20220;-68
2023/08/07 00:25:21;;;;;;;2.83;1.23;;;;;;;-145.14;100.00;70583.66;5004859;28;21576;-67
2023/08/07 00:27:46;;;;;;;4.07;1.30;;;;;;;-145.14;100.00;70583.66;5003937;28;20199;-67
2023/08/07 00:30:12;;;;;;;4.80;1.57;;;;;;;-145.14;100.00;70583.66;5007950;28;20184;-67
2023/08/07 00:32:37;;;;;;;6.53;1.30;;;;;;;-145.14;100.00;70583.66;5001163;28;20201;-67
2023/08/07 00:35:04;;;;;;;2.20;1.33;;;;;;;-145.14;100.00;70583.66;4999750;28;20223;-67
2023/08/07 00:37:30;;;;;;;3.83;1.67;;;;;;;-145.14;100.00;70583.66;5002044;28;20383;-67
2023/08/07 00:39:55;;;;;;;2.17;1.40;;;;;;;-145.14;100.00;70583.66;5004095;28;20479;-67
2023/08/07 00:42:21;;;;;;;1.70;1.10;;;;;;;-145.14;100.00;70583.66;5005755;28;21062;-67
2023/08/07 00:44:46;;;;;;;2.63;1.30;;;;;;;-145.14;100.00;70583.66;5004703;28;20684;-67
2023/08/07 00:47:12;;;;;;;2.40;1.43;;;;;;;-145.14;100.00;70583.66;5003516;28;20573;-68
2023/08/07 00:49:37;;;;;;;2.97;1.37;;;;;;;-145.14;100.00;70583.66;5008933;28;20771;-67
2023/08/07 00:52:03;;;;;;;5.37;2.00;;;;;;;-145.14;100.00;70583.66;5007098;28;20233;-68
2023/08/07 00:54:29;;;;;;;3.40;1.63;;;;;;;-145.14;100.00;70583.66;5005973;28;20192;-67
2023/08/07 00:56:55;;;;;;;3.70;1.60;;;;;;;-145.14;100.00;70583.66;5011560;28;20827;-67
2023/08/07 00:59:21;;;;;;;2.87;1.70;;;;;;;-145.14;100.00;70583.66;5001154;28;20450;-67
2023/08/07 01:01:47;;;;;;;2.60;1.50;;;;;;;-145.14;100.00;70583.66;4999319;28;20220;-67
2023/08/07 01:04:12;;;;;;;3.73;1.43;;;;;;;-145.14;100.00;70583.66;5006007;28;20521;-68
2023/08/07 01:06:37;;;;;;;2.27;1.40;;;;;;;-145.14;100.00;70583.66;5005897;28;20201;-68
2023/08/07 01:09:04;;;;;;;4.33;1.67;;;;;;;-145.14;100.00;70583.66;4999820;28;20196;-67
2023/08/07 01:11:47;;;;;;;2.60;1.60;;;;;;;-145.14;100.00;70583.66;5002327;28;20254;-66
2023/08/07 01:14:28;;;;;;;3.77;1.90;;;;;;;-145.14;100.00;70583.66;5002426;28;20566;-68
2023/08/07 01:17:03;;;;;;;3.73;1.80;;;;;;;-145.14;100.00;70583.66;5007165;28;20490;-68
2023/08/07 01:19:30;;;;;;;4.20;1.53;;;;;;;-145.14;100.00;70583.66;5007576;28;20434;-67
2023/08/07 01:22:09;;;;;;;5.80;2.10;;;;;;;-145.14;100.00;70583.66;5009689;28;20451;-68
2023/08/07 01:24:36;;;;;;;4.23;1.77;;;;;;;-145.14;100.00;70583.66;5006193;28;20482;-67
2023/08/07 01:27:11;;;;;;;6.13;1.97;;;;;;;-145.14;100.00;70583.66;5010219;28;20482;-67
2023/08/07 01:30:15;;;;;;;3.30;1.63;;;;;;;-145.14;100.00;70583.66;5011687;28;20583;-67
2023/08/07 01:33:02;;;;;;;3.57;1.33;;;;;;;-145.14;100.00;70583.66;4998616;28;20493;-67
2023/08/07 01:35:32;;;;;;;3.23;1.53;;;;;;;-145.14;100.00;70583.66;5011262;28;20492;-68
2023/08/07 01:37:59;;;;;;;3.87;1.80;;;;;;;-145.14;100.00;70583.66;5011235;28;20444;-67
2023/08/07 01:40:26;;;;;;;2.53;1.20;;;;;;;-145.14;100.00;70583.66;5016675;28;20459;-67
2023/08/07 01:42:52;;;;;;;4.03;1.50;;;;;;;-145.14;100.00;70583.66;5013428;28;20467;-67
2023/08/07 01:45:25;;;;;;;2.57;1.40;;;;;;;-145.14;100.00;70583.66;5012320;28;20531;-67
2023/08/07 01:47:52;;;;;;;3.50;1.40;;;;;;;-145.14;100.00;70583.66;5011495;28;20191;-67
2023/08/07 01:50:18;;;;;;;4.63;1.60;;;;;;;-145.14;100.00;70583.66;5015013;28;20450;-68
2023/08/07 01:52:44;;;;;;;6.13;1.90;;;;;;;-145.14;100.00;70583.66;5012025;28;20449;-67
2023/08/07 01:55:09;;;;;;;4.67;1.60;;;;;;;-145.14;100.00;70583.66;5011858;28;20483;-68
2023/08/07 01:57:35;;;;;;;4.47;1.40;;;;;;;-145.14;100.00;70583.66;5010783;28;20561;-67
2023/08/07 02:00:00;;;;;;;4.30;2.00;;;;;;;-145.14;100.00;70583.66;5009506;28;20327;-67
2023/08/07 02:02:25;;;;;;;2.90;1.37;;;;;;;-145.14;100.00;70583.66;5012810;28;20656;-68
2023/08/07 02:04:51;;;;;;;3.20;1.50;;;;;;;-145.14;100.00;70583.66;5012595;28;20204;-67
2023/08/07 02:07:16;;;;;;;4.30;1.67;;;;;;;-145.14;100.00;70583.66;5009032;28;20284;-67
2023/08/07 02:09:42;;;;;;;3.40;1.73;;;;;;;-145.14;100.00;70583.66;5014396;28;20199;-67
2023/08/07 02:12:08;;;;;;;4.23;1.43;;;;;;;-145.14;100.00;70583.66;5011953;28;20193;-67
2023/08/07 02:14:33;;;;;;;5.43;2.00;;;;;;;-145.14;100.00;70583.66;5010749;28;20192;-68
2023/08/07 02:16:59;;;;;;;3.37;1.70;;;;;;;-145.14;100.00;70583.66;5010320;28;20202;-67
2023/08/07 02:19:24;;;;;;;4.17;1.70;;;;;;;-145.14;100.00;70583.66;5011028;28;20555;-67
2023/08/07 02:21:49;;;;;;;2.43;1.63;;;;;;;-145.14;100.00;70583.66;5012732;28;20685;-67
2023/08/07 02:24:15;;;;;;;2.63;1.30;;;;;;;-145.14;100.00;70583.66;5012446;28;20195;-67
2023/08/07 02:26:40;;;;;;;4.53;1.67;;;;;;;-145.14;100.00;70583.66;5010634;28;20193;-67
2023/08/07 02:29:08;;;;;;;2.73;1.47;;;;;;;-145.14;100.00;70583.66;5013976;28;20184;-67
2023/08/07 02:31:34;;;;;;;3.00;1.60;;;;;;;-145.14;100.00;70583.66;5017273;28;20308;-67
2023/08/07 02:33:59;;;;;;;3.27;1.50;;;;;;;-145.14;100.00;70583.66;5011593;28;20940;-67
2023/08/07 02:36:25;;;;;;;2.70;1.47;;;;;;;-145.14;100.00;70583.66;5011408;28;20215;-67
2023/08/07 02:38:50;;;;;;;3.00;1.27;;;;;;;-145.14;100.00;70583.66;5006682;28;20181;-67
2023/08/07 02:41:16;;;;;;;2.17;1.17;;;;;;;-145.14;100.00;70583.66;5017848;28;20213;-67
2023/08/07 02:43:41;;;;;;;3.93;1.40;;;;;;;-145.14;100.00;70583.66;5009731;28;20200;-67
2023/08/07 02:46:06;;;;;;;3.83;1.33;;;;;;;-145.14;100.00;70583.66;5009351;28;20213;-67
2023/08/07 02:48:32;;;;;;;2.50;1.10;;;;;;;-145.14;100.00;70583.66;5012413;28;20196;-67
2023/08/07 02:50:57;;;;;;;3.63;1.30;;;;;;;-145.14;100.00;70583.66;5010527;28;20525;-67
2023/08/07 02:53:23;;;;;;;8.27;2.20;;;;;;;-145.14;100.00;70583.66;5008102;28;20667;-67
2023/08/07 02:55:48;;;;;;;8.60;1.60;;;;;;;-145.14;100.00;70583.66;5010648;28;20205;-67
2023/08/07 02:58:13;;;;;;;4.30;1.57;;;;;;;-145.14;100.00;70583.66;5009281;28;20213;-67
2023/08/07 03:00:39;;;;;;;5.37;1.40;;;;;;;-145.14;100.00;70583.66;5010070;28;20279;-67
2023/08/07 03:03:04;;;;;;;5.90;1.03;;;;;;;-145.14;100.00;70583.66;5015541;28;20833;-67
2023/08/07 03:05:30;;;;;;;6.83;1.50;;;;;;;-145.14;100.00;70583.66;5009927;28;20213;-67
2023/08/07 03:07:55;;;;;;;3.87;1.20;;;;;;;-145.14;100.00;70583.66;5009530;28;20562;-67
2023/08/07 03:10:21;;;;;;;5.03;1.23;;;;;;;-145.14;100.00;70583.66;5010149;28;20207;-67
2023/08/07 03:12:46;;;;;;;4.90;1.20;;;;;;;-145.14;100.00;70583.66;5015795;28;20193;-67
2023/08/07 03:15:12;;;;;;;4.27;1.50;;;;;;;-145.14;100.00;70583.66;5007475;28;20263;-67
2023/08/07 03:17:37;;;;;;;3.30;1.30;;;;;;;-145.14;100.00;70583.66;5011291;28;20200;-67
2023/08/07 03:20:03;;;;;;;3.77;1.30;;;;;;;-145.14;100.00;70583.66;5010652;28;20224;-67
2023/08/07 03:22:29;;;;;;;4.77;1.27;;;;;;;-145.14;100.00;70583.66;5008241;28;20221;-66
2023/08/07 03:24:55;;;;;;;2.80;1.03;;;;;;;-145.14;100.00;70583.66;5008122;28;20510;-67
2023/08/07 03:27:20;;;;;;;3.70;1.53;;;;;;;-145.14;100.00;70583.66;5009581;28;20192;-67
2023/08/07 03:29:46;;;;;;;3.27;1.00;;;;;;;-145.14;100.00;70583.66;5011553;28;20196;-67
2023/08/07 03:32:11;;;;;;;3.10;1.00;;;;;;;-145.14;100.00;70583.66;5009418;28;20687;-67
2023/08/07 03:34:37;;;;;;;2.77;1.00;;;;;;;-145.14;100.00;70583.66;5018605;28;20204;-67
2023/08/07 03:37:02;;;;;;;2.77;1.17;;;;;;;-145.14;100.00;70583.66;5008893;28;20181;-67
2023/08/07 03:39:28;;;;;;;4.73;1.23;;;;;;;-145.14;100.00;70583.66;5011636;28;20197;-67
2023/08/07 03:41:53;;;;;;;4.53;1.00;;;;;;;-145.14;100.00;70583.66;5010544;28;20239;-67
2023/08/07 03:44:19;;;;;;;2.03;0.77;;;;;;;-145.14;100.00;70583.66;5005333;28;20211;-67
2023/08/07 03:46:44;;;;;;;3.07;0.90;;;;;;;-145.14;100.00;70583.66;5011066;28;20565;-67
2023/08/07 03:49:09;;;;;;;3.13;1.00;;;;;;;-145.14;100.00;70583.66;5006919;28;20185;-67
2023/08/07 03:51:35;;;;;;;2.17;0.80;;;;;;;-145.14;100.00;70583.66;5006951;28;20672;-67
2023/08/07 03:54:00;;;;;;;2.23;0.80;;;;;;;-145.14;100.00;70583.66;5006110;28;20267;-67
2023/08/07 03:56:26;;;;;;;2.53;0.90;;;;;;;-145.14;100.00;70583.66;5003933;28;20961;-67
2023/08/07 03:58:51;;;;;;;6.70;1.10;;;;;;;-145.14;100.00;70583.66;5008995;28;20660;-67
2023/08/07 04:01:17;;;;;;;2.97;1.10;;;;;;;-145.14;100.00;70583.66;5009864;28;20216;-67
2023/08/07 04:03:42;;;;;;;2.40;0.90;;;;;;;-145.14;100.00;70583.66;5007660;28;20223;-67
2023/08/07 04:06:08;;;;;;;3.43;1.10;;;;;;;-145.14;100.00;70583.66;5005308;28;20724;-67
2023/08/07 04:08:33;;;;;;;3.57;1.10;;;;;;;-145.14;100.00;70583.66;5000315;28;20800;-67
2023/08/07 04:11:04;;;;;;;4.63;1.40;;;;;;;-145.14;100.00;70583.66;5006993;28;21429;-67
2023/08/07 04:13:30;;;;;;;4.40;1.43;;;;;;;-145.14;100.00;70583.66;5005863;28;20189;-67
2023/08/07 04:15:56;;;;;;;4.83;1.70;;;;;;;-145.14;100.00;70583.66;5002982;28;20464;-67
2023/08/07 04:18:22;;;;;;;6.17;1.83;;;;;;;-145.14;100.00;70583.66;5009990;28;20443;-67
2023/08/07 04:20:54;;;;;;;4.40;2.03;;;;;;;-145.14;100.00;70583.66;5017147;28;20272;-68
2023/08/07 04:23:20;;;;;;;4.73;1.50;;;;;;;-145.14;100.00;70583.66;5008080;28;20193;-67
2023/08/07 04:25:50;;;;;;;7.17;2.00;;;;;;;-145.14;100.00;70583.66;5004597;28;20470;-67
2023/08/07 04:28:16;;;;;;;6.40;2.20;;;;;;;-145.14;100.00;70583.66;5010137;28;20511;-67
2023/08/07 04:30:41;;;;;;;4.73;1.53;;;;;;;-145.14;100.00;70583.66;5007892;28;20581;-67
2023/08/07 04:33:07;;;;;;;6.00;1.40;;;;;;;-145.14;100.00;70583.66;5006410;28;20189;-67
2023/08/07 04:35:33;;;;;;;5.60;1.70;;;;;;;-145.14;100.00;70583.66;5008687;28;20288;-67
2023/08/07 04:37:59;;;;;;;7.10;1.80;;;;;;;-145.14;100.00;70583.66;5009154;28;20466;-67
2023/08/07 04:40:25;;;;;;;4.47;1.67;;;;;;;-145.14;100.00;70583.66;5017420;28;20274;-67
2023/08/07 04:42:50;;;;;;;6.93;2.93;;;;;;;-145.14;100.00;70583.66;5008077;28;20443;-67
2023/08/07 04:45:16;;;;;;;6.77;2.10;;;;;;;-145.14;100.00;70583.66;5007617;28;20574;-67
2023/08/07 04:47:41;;;;;;;6.43;1.50;;;;;;;-145.14;100.00;70583.66;5007894;28;20203;-67
2023/08/07 04:50:08;;;;;;;6.00;1.97;;;;;;;-145.14;100.00;70583.66;5007605;28;20185;-67
2023/08/07 04:52:34;;;;;;;5.40;1.93;;;;;;;-145.14;100.00;70583.66;5007036;28;20185;-67
2023/08/07 04:54:59;;;;;;;6.70;2.60;;;;;;;-145.14;100.00;70583.66;5021908;28;20490;-67
2023/08/07 04:57:24;;;;;;;13.37;2.67;;;;;;;-145.14;100.00;70583.66;5020431;28;20455;-67
2023/08/07 04:59:51;;;;;;;6.93;2.10;;;;;;;-145.14;100.00;70583.66;5014048;28;20687;-67
2023/08/07 05:02:17;;;;;;;5.47;1.80;;;;;;;-145.14;100.00;70583.66;5014433;28;20228;-67
2023/08/07 05:04:42;;;;;;;8.07;2.40;;;;;;;-145.14;100.00;70583.66;5014206;28;20456;-69
2023/08/07 05:07:08;;;;;;;9.27;2.20;;;;;;;-145.14;100.00;70583.66;5013799;28;20187;-68
2023/08/07 05:09:33;;;;;;;6.93;2.30;;;;;;;-145.14;100.00;70583.66;5016145;28;20977;-68
2023/08/07 05:11:59;;;;;;;8.43;2.53;;;;;;;-145.14;100.00;70583.66;5013261;28;20184;-68
2023/08/07 05:14:24;;;;;;;7.90;2.60;;;;;;;-145.14;100.00;70583.66;5014006;28;20267;-68
2023/08/07 05:16:50;;;;;;;8.10;2.17;;;;;;;-145.14;100.00;70583.66;5009155;28;20711;-68
2023/08/07 05:19:15;;;;;;;8.90;2.43;;;;;;;-145.14;100.00;70583.66;5014542;28;20659;-68
2023/08/07 05:21:40;;;;;;;3.83;1.87;;;;;;;-145.14;100.00;70583.66;5012494;28;20212;-67
2023/08/07 05:24:06;;;;;;;7.43;2.30;;;;;;;-145.14;100.00;70583.66;5013501;28;20180;-68
2023/08/07 05:26:31;;;;;;;6.43;2.40;;;;;;;-145.14;100.00;70583.66;5014557;28;20705;-67
2023/08/07 05:29:00;;;;;;;10.40;2.87;;;;;;;-145.14;100.00;70583.66;5015415;28;20185;-67
2023/08/07 05:31:25;;;;;;;7.60;1.90;;;;;;;-145.14;100.00;70583.66;5010987;28;20593;-67
2023/08/07 05:33:50;;;;;;;9.23;2.53;;;;;;;-145.14;100.00;70583.66;5010865;28;20442;-68
2023/08/07 05:36:16;;;;;;;7.83;2.40;;;;;;;-145.14;100.00;70583.66;5013118;28;20840;-68
2023/08/07 05:38:41;;;;;;;11.93;3.50;;;;;;;-145.14;100.00;70583.66;5015538;28;20779;-67
2023/08/07 05:41:09;;;;;;;8.47;2.70;;;;;;;-145.14;100.00;70583.66;5013788;28;20200;-68
2023/08/07 05:43:34;;;;;;;6.90;2.30;;;;;;;-145.14;100.00;70583.66;5014854;28;20169;-68
2023/08/07 05:45:59;;;;;;;12.37;2.50;;;;;;;-145.14;100.00;70583.66;5013016;28;20447;-67
2023/08/07 05:48:25;;;;;;;7.10;2.30;;;;;;;-145.14;100.00;70583.66;5013782;28;20185;-67
2023/08/07 05:50:52;;;;;;;13.00;2.77;;;;;;;-145.14;100.00;70583.66;5014926;28;20181;-67
2023/08/07 05:53:17;;;;;;;7.00;2.20;;;;;;;-145.14;100.00;70583.66;5023453;28;20184;-67
2023/08/07 05:55:43;;;;;;;9.03;3.00;;;;;;;-145.14;100.00;70583.66;5012902;28;20502;-67
2023/08/07 05:58:08;;;;;;;6.23;2.40;;;;;;;-145.14;100.00;70583.66;5012336;28;20254;-67
2023/08/07 06:00:34;;;;;;;6.03;2.37;;;;;;;-145.14;100.00;70583.66;5009904;28;20212;-67
2023/08/07 06:03:00;;;;;;;7.70;2.03;;;;;;;-145.14;100.00;70583.66;5013328;28;20188;-67
2023/08/07 06:05:25;;;;;;;7.67;3.07;;;;;;;-145.14;100.00;70583.66;5010194;28;20813;-66
2023/08/07 06:07:51;;;;;;;8.20;2.43;;;;;;;-145.14;100.00;70583.66;5011474;28;20180;-67
2023/08/07 06:10:16;;;;;;;9.20;2.07;;;;;;;-145.14;100.00;70583.66;5012604;28;20204;-66
2023/08/07 06:12:42;;;;;;;5.60;1.80;;;;;;;-145.14;100.00;70583.66;5011808;28;20174;-67
2023/08/07 06:15:08;;;;;;;6.13;2.17;;;;;;;-145.14;100.00;70583.66;5011981;28;20207;-67
2023/08/07 06:17:34;;;;;;;5.90;2.10;;;;;;;-145.14;100.00;70583.66;5011171;28;20185;-66
2023/08/07 06:19:59;;;;;;;6.10;2.70;;;;;;;-145.14;100.00;70583.66;5011502;28;20959;-67
2023/08/07 06:22:25;;;;;;;11.37;3.40;;;;;;;-145.14;100.00;70583.66;5012076;28;20222;-67
2023/08/07 06:24:50;;;;;;;6.43;2.47;;;;;;;-145.14;100.00;70583.66;5014611;28;20201;-68
2023/08/07 06:27:16;;;;;;;10.60;3.37;;;;;;;-145.14;100.00;70583.66;5012280;28;20181;-67
2023/08/07 06:29:41;;;;;;;14.43;3.83;;;;;;;-145.14;100.00;70583.66;5010232;28;20637;-67
2023/08/07 06:32:07;;;;;;;7.83;2.17;;;;;;;-145.14;100.00;70583.66;5011861;28;20177;-67
2023/08/07 06:34:32;;;;;;;12.13;3.60;;;;;;;-145.14;100.00;70583.66;5013025;28;20189;-66
2023/08/07 06:36:58;;;;;;;8.27;2.27;;;;;;;-145.14;100.00;70583.66;5020012;28;20177;-66
2023/08/07 06:39:23;;;;;;;6.40;2.33;;;;;;;-145.14;100.00;70583.66;5012034;28;20707;-67
2023/08/07 06:41:49;;;;;;;8.13;2.90;;;;;;;-145.14;100.00;70583.66;5012585;28;20201;-67
2023/08/07 06:44:14;;;;;;;8.40;2.70;;;;;;;-145.14;100.00;70583.66;5012077;28;20657;-66
2023/08/07 06:46:39;;;;;;;10.43;2.90;;;;;;;-145.14;100.00;70583.66;5007240;28;20228;-66
2023/08/07 06:49:05;;;;;;;9.40;2.33;;;;;;;-145.14;100.00;70583.66;5008236;28;20181;-66
2023/08/07 06:51:30;;;;;;;6.33;2.23;;;;;;;-145.14;100.00;70583.66;5013635;28;20177;-67
2023/08/07 06:53:56;;;;;;;11.07;3.47;;;;;;;-145.14;100.00;70583.66;5011177;28;20546;-67
2023/08/07 06:56:21;;;;;;;8.13;2.63;;;;;;;-145.14;100.00;70583.66;5011470;28;20209;-67
2023/08/07 06:58:47;;;;;;;6.70;2.00;;;;;;;-145.14;100.00;70583.66;5011940;28;20172;-66
2023/08/07 07:01:12;;;;;;;6.20;2.00;;;;;;;-145.14;100.00;70583.66;5010378;28;20692;-67
2023/08/07 07:03:37;;;;;;;7.30;2.77;;;;;;;-145.14;100.00;70583.66;5019114;28;20181;-67
2023/08/07 07:06:03;;;;;;;10.43;2.87;;;;;;;-145.14;100.00;70583.66;5010717;28;20208;-67
2023/08/07 07:08:28;;;;;;;7.30;2.17;;;;;;;-145.14;100.00;70583.66;5015743;28;20623;-67
2023/08/07 07:10:54;;;;;;;14.13;2.87;;;;;;;-145.14;100.00;70583.66;5009715;28;20188;-67
2023/08/07 07:13:19;;;;;;;9.07;2.37;;;;;;;-145.14;100.00;70583.66;5011873;28;20776;-67
2023/08/07 07:15:45;;;;;;;6.87;2.40;;;;;;;-145.14;100.00;70583.66;5009418;28;20189;-67
2023/08/07 07:18:10;;;;;;;7.63;2.10;;;;;;;-145.14;100.00;70583.66;5010322;28;20177;-67
2023/08/07 07:20:35;;;;;;;9.00;2.97;;;;;;;-145.14;100.00;70583.66;5011605;28;20201;-68
2023/08/07 07:23:01;;;;;;;9.33;2.13;;;;;;;-145.14;100.00;70583.66;5011891;28;20194;-68
2023/08/07 07:25:26;;;;;;;8.03;2.53;;;;;;;-145.14;100.00;70583.66;5012037;28;20231;-68
2023/08/07 07:27:52;;;;;;;6.47;2.50;;;;;;;-145.14;100.00;70583.66;5010392;28;20189;-68
2023/08/07 07:30:17;;;;;;;8.27;2.73;;;;;;;-145.14;100.00;70583.66;5011227;28;20630;-68
2023/08/07 07:32:43;;;;;;;12.87;3.30;;;;;;;-145.14;100.00;70583.66;5011136;28;20265;-68
2023/08/07 07:35:08;;;;;;;9.47;3.77;;;;;;;-145.14;100.00;70583.66;5011609;28;20226;-68
2023/08/07 07:37:34;;;;;;;6.67;2.37;;;;;;;-145.14;100.00;70583.66;5012114;28;20276;-67
2023/08/07 07:39:59;;;;;;;9.37;3.07;;;;;;;-145.14;100.00;70583.66;5019223;28;20550;-69
2023/08/07 07:42:25;;;;;;;6.57;1.93;;;;;;;-145.14;100.00;70583.66;5011163;28;20250;-67
2023/08/07 07:44:50;;;;;;;7.50;2.37;;;;;;;-145.14;100.00;70583.66;5012274;28;20208;-68
2023/08/07 07:47:16;;;;;;;11.57;2.73;;;;;;;-145.14;100.00;70583.66;5010970;28;20177;-67
2023/08/07 07:49:47;;;;;;;12.27;2.70;;;;;;;-145.14;100.00;70583.66;5010374;28;20194;-68
2023/08/07 07:52:12;;;;;;;7.77;2.63;;;;;;;-145.14;100.00;70583.66;5011077;28;20245;-67
2023/08/07 07:54:38;;;;;;;7.43;2.13;;;;;;;-145.14;100.00;70583.66;5009864;28;20951;-68
2023/08/07 07:57:04;;;;;;;9.53;3.00;;;;;;;-145.14;100.00;70583.66;5009973;28;20484;-67
2023/08/07 07:59:29;;;;;;;9.67;2.37;;;;;;;-145.14;100.00;70583.66;5012050;28;20702;-67
2023/08/07 08:01:54;;;;;;;10.00;2.40;;;;;;;-145.14;100.00;70583.66;5010444;28;20799;-68
2023/08/07 08:04:20;;;;;;;9.90;3.40;;;;;;;-145.14;100.00;70583.66;5009554;28;20267;-68
2023/08/07 08:06:48;;;;;;;9.47;2.47;;;;;;;-145.14;100.00;70583.66;5009741;28;20238;-67
2023/08/07 08:09:13;;;;;;;10.47;2.20;;;;;;;-145.14;100.00;70583.66;5011903;28;20204;-68
2023/08/07 08:11:39;;;;;;;6.27;1.80;;;;;;;-145.14;100.00;70583.66;5010339;28;20943;-67
2023/08/07 08:14:04;;;;;;;11.13;2.50;;;;;;;-145.14;100.00;70583.66;5012325;28;20176;-68
2023/08/07 08:16:29;;;;;;;7.33;1.83;;;;;;;-145.14;100.00;70583.66;5010561;28;20243;-68
2023/08/07 08:18:55;;;;;;;7.10;2.00;;;;;;;-145.14;100.00;70583.66;5010529;28;20633;-67
2023/08/07 08:21:20;;;;;;;3.83;1.70;;;;;;;-145.14;100.00;70583.66;5013885;28;20215;-67
2023/08/07 08:23:46;;;;;;;4.83;1.70;;;;;;;-145.14;100.00;70583.66;5017957;28;20173;-66
2023/08/07 08:26:11;;;;;;;6.90;2.27;;;;;;;-145.14;100.00;70583.66;5010587;28;20628;-68
2023/08/07 08:28:38;;;;;;;5.53;1.83;;;;;;;-145.14;100.00;70583.66;5009790;28;20184;-67
2023/08/07 08:31:03;;;;;;;10.30;2.80;;;;;;;-145.14;100.00;70583.66;5010764;28;20223;-67
2023/08/07 08:33:28;;;;;;;7.53;2.00;;;;;;;-145.14;100.00;70583.66;5012758;28;20856;-66
2023/08/07 08:35:54;;;;;;;11.07;2.40;;;;;;;-145.14;100.00;70583.66;5015119;28;20250;-66
2023/08/07 08:38:21;;;;;;;6.60;2.37;;;;;;;-145.14;100.00;70583.66;5013709;28;20197;-66
2023/08/07 08:40:51;;;;;;;5.63;1.97;;;;;;;-145.14;100.00;70583.66;5022508;28;20212;-66
2023/08/07 08:43:16;;;;;;;6.70;1.90;;;;;;;-145.14;100.00;70583.66;5014922;28;20482;-66
2023/08/07 08:45:44;;;;;;;3.77;1.90;;;;;;;-145.14;100.00;70583.66;5013137;28;20447;-66
2023/08/07 08:48:17;;;;;;;3.93;1.50;;;;;;;-145.14;100.00;70583.66;5013884;28;20173;-66
2023/08/07 08:50:43;;;;;;;4.60;1.60;;;;;;;-145.14;100.00;70583.66;5015432;28;20791;-66
2023/08/07 08:53:09;;;;;;;8.03;2.17;;;;;;;-145.14;100.00;70583.66;5012086;28;20435;-66
2023/08/07 08:55:36;;;;;;;7.63;2.43;;;;;;;-145.14;100.00;70583.66;5014610;28;20458;-66
2023/08/07 08:58:01;;;;;;;6.60;1.87;;;;;;;-145.14;100.00;70583.66;5013561;28;20176;-65
2023/08/07 09:00:29;;;;;;;5.43;2.00;;;;;;;-145.14;100.00;70583.66;5013194;28;20463;-66
2023/08/07 09:02:54;;;;;;;6.30;2.23;;;;;;;-145.14;100.00;70583.66;5018360;28;20183;-67
2023/08/07 09:05:21;;;;;;;12.40;2.23;;;;;;;-145.14;100.00;70583.66;5013787;28;20463;-67
2023/08/07 09:07:49;;;;;;;8.90;2.67;;;;;;;-145.14;100.00;70583.66;5013735;28;20177;-67
2023/08/07 09:10:16;;;;;;;9.10;1.77;;;;;;;-145.14;100.00;70583.66;5023248;28;20428;-66
2023/08/07 09:12:52;;;;;;;5.20;1.70;;;;;;;-145.14;100.00;70583.66;5012181;28;20434;-66
2023/08/07 09:15:19;;;;;;;3.47;1.37;;;;;;;-145.14;100.00;70583.66;5014754;28;20506;-67
2023/08/07 09:17:46;;;;;;;7.10;2.00;;;;;;;-145.14;100.00;70583.66;5012159;28;20466;-67
2023/08/07 09:20:11;;;;;;;6.60;1.93;;;;;;;-145.14;100.00;70583.66;5012196;28;20496;-67
2023/08/07 09:22:39;;;;;;;4.20;1.60;;;;;;;-145.14;100.00;70583.66;5014754;28;20880;-67
2023/08/07 09:25:05;;;;;;;4.70;1.60;;;;;;;-145.14;100.00;70583.66;5020479;28;20689;-66
2023/08/07 09:27:30;;;;;;;6.10;1.63;;;;;;;-145.14;100.00;70583.66;5012318;28;20454;-66
2023/08/07 09:29:57;;;;;;;4.83;1.80;;;;;;;-145.14;100.00;70583.66;5012142;28;20800;-67
2023/08/07 09:32:24;;;;;;;6.70;2.23;;;;;;;-145.14;100.00;70583.66;5009389;28;20216;-66
2023/08/07 09:34:50;;;;;;;5.60;2.17;;;;;;;-145.14;100.00;70583.66;5020481;28;21550;-67
2023/08/07 09:37:16;;;;;;;6.83;2.40;;;;;;;-145.14;100.00;70583.66;5013145;28;20565;-66
2023/08/07 09:39:41;;;;;;;7.50;2.80;;;;;;;-145.14;100.00;70583.66;5013720;28;20451;-67
2023/08/07 09:42:15;;;;;;;7.87;2.30;;;;;;;-145.14;100.00;70583.66;5009198;28;20232;-67
2023/08/07 09:44:41;;;;;;;7.67;2.23;;;;;;;-145.14;100.00;70583.66;5015549;28;20247;-66
2023/08/07 09:47:14;;;;;;;8.80;2.83;;;;;;;-145.14;100.00;70583.66;5013738;28;20443;-67
2023/08/07 09:49:40;;;;;;;11.63;2.57;;;;;;;-145.14;100.00;70583.66;5010724;28;20509;-67
2023/08/07 09:52:07;;;;;;;5.67;1.87;;;;;;;-145.14;100.00;70583.66;5011790;28;20990;-67
2023/08/07 09:54:33;;;;;;;5.20;1.70;;;;;;;-145.14;100.00;70583.66;5020561;28;20189;-67
2023/08/07 09:57:01;;;;;;;7.17;2.30;;;;;;;-145.14;100.00;70583.66;5014615;28;20436;-67
2023/08/07 09:59:27;;;;;;;7.30;2.13;;;;;;;-145.14;100.00;70583.66;5012024;28;21911;-67
2023/08/07 10:01:53;;;;;;;6.70;2.60;;;;;;;-145.14;100.00;70583.66;5013444;28;21047;-67
2023/08/07 10:04:18;;;;;;;4.30;1.70;;;;;;;-145.14;100.00;70583.66;5011075;28;20452;-66
2023/08/07 10:06:46;;;;;;;9.90;2.20;;;;;;;-145.14;100.00;70583.66;5014122;28;20431;-68
2023/08/07 10:09:11;;;;;;;6.63;1.90;;;;;;;-145.14;100.00;70583.66;5008815;28;20177;-68
2023/08/07 10:11:38;;;;;;;8.63;2.67;;;;;;;-145.14;100.00;70583.66;5010927;28;20908;-68
2023/08/07 10:14:04;;;;;;;3.80;1.43;;;;;;;-145.14;100.00;70583.66;5011737;28;20189;-67
2023/08/07 10:16:30;;;;;;;4.87;1.80;;;;;;;-145.14;100.00;70583.66;5024251;28;20460;-67
2023/08/07 10:18:56;;;;;;;7.07;2.30;;;;;;;-145.14;100.00;70583.66;5011250;28;20976;-68
2023/08/07 10:21:23;;;;;;;8.40;2.10;;;;;;;-145.14;100.00;70583.66;5012337;28;20471;-68
2023/08/07 10:23:52;;;;;;;5.73;2.40;;;;;;;-145.14;100.00;70583.66;5007579;28;20185;-68
2023/08/07 10:26:20;;;;;;;11.47;3.13;;;;;;;-145.14;100.00;70583.66;5012714;28;21032;-67
2023/08/07 10:28:47;;;;;;;8.10;2.60;;;;;;;-145.14;100.00;70583.66;5012148;28;20431;-68
2023/08/07 10:31:14;;;;;;;6.40;1.90;;;;;;;-145.14;100.00;70583.66;5012457;28;20527;-68
2023/08/07 10:33:41;;;;;;;4.80;1.77;;;;;;;-145.14;100.00;70583.66;5013635;28;20813;-68
2023/08/07 10:36:10;;;;;;;4.43;1.70;;;;;;;-145.14;100.00;70583.66;5010932;28;20483;-68
2023/08/07 10:38:36;;;;;;;6.77;2.10;;;;;;;-145.14;100.00;70583.66;5012346;28;20538;-68
2023/08/07 10:41:06;;;;;;;9.70;2.77;;;;;;;-145.14;100.00;70583.66;5012665;28;21058;-68
2023/08/07 10:43:45;;;;;;;6.40;1.80;;;;;;;-145.14;100.00;70583.66;5009825;28;20184;-68
2023/08/07 10:46:12;;;;;;;8.50;2.17;;;;;;;-145.14;100.00;70583.66;5013442;28;20521;-68
2023/08/07 10:48:48;;;;;;;6.90;1.80;;;;;;;-145.14;100.00;70583.66;5011487;28;20988;-69
2023/08/07 10:51:15;;;;;;;4.43;1.60;;;;;;;-145.14;100.00;70583.66;5011527;28;20423;-68
2023/08/07 10:53:46;;;;;;;6.07;1.67;;;;;;;-145.14;100.00;70583.66;5008022;28;21062;-68
2023/08/07 10:56:30;;;;;;;7.57;2.00;;;;;;;-145.14;100.00;70583.66;5011483;28;21046;-67
2023/08/07 10:58:55;;;;;;;6.40;2.20;;;;;;;-145.14;100.00;70583.66;5010784;28;20439;-68
2023/08/07 11:01:27;;;;;;;5.97;1.80;;;;;;;-145.14;100.00;70583.66;5018929;28;20463;-69
2023/08/07 11:03:57;;;;;;;7.30;2.17;;;;;;;-145.14;100.00;70583.66;5010044;28;20457;-68
2023/08/07 11:06:28;;;;;;;6.67;1.80;;;;;;;-145.14;100.00;70583.66;5012068;28;20544;-68